Terminal Aerodrome Forecast
Issued by NWS

Home | Current Version | Previous Version | Text Only | Print | Product List | Glossary On
Versions: 1 2 3 4 5 6 7 8 9 10 11 12 13 14 15 16 17 18 19 20 21 22 23 24 25 26 27 28 29 30 31 32 33 34 35 36 37 38 39 40 41 42 43 44 45 46 47 48 49 50
000
FTUS42 KMFL 251732
TAFFXE
TAF
KFXE 251732Z 2518/2618 12010KT P6SM VCTS SCT025CB SCT050 SCT250
     FM252200 13007KT P6SM SCT035 SCT060 BKN250
     FM260300 VRB04KT P6SM FEW030 SCT250
     FM261600 15007KT P6SM SCT030 SCT050=

USA.gov is the U.S. government's official web portal to all federal, state and local government web resources and services.